Terminal Aerodrome Forecast
Issued by NWS

Home | Current Version | Previous Version | Text Only | Print | Product List | Glossary On
Versions: 1 2 3 4 5 6 7 8 9 10 11 12 13 14 15 16 17 18 19 20 21 22 23 24 25 26 27 28 29 30 31 32 33
283
FTUS41 KOKX 281736
TAFSWF
TAF
KSWF 281736Z 2818/2924 08004KT 2SM -RA BR OVC003
      TEMPO 2818/2822 1SM BR
     FM282300 04004KT 2SM -RA BR OVC004
     FM290500 36005KT 2SM BR OVC004
     FM290900 34010KT 4SM BR BKN015
     FM291200 34012KT P6SM BKN050
     FM291500 34014G20KT P6SM SCT250
      AMD NOT SKED=

USA.gov is the U.S. government's official web portal to all federal, state and local government web resources and services.